sensor_id;sensor_type;location;lat;lon;timestamp;P1;durP1;ratioP1;P2;durP2;ratioP2
66741;SDS011;53654;54.152;19.432;2023-02-01T00:01:17;5.50;;;3.30;;
66741;SDS011;53654;54.152;19.432;2023-02-01T00:03:44;5.70;;;3.20;;
66741;SDS011;53654;54.152;19.432;2023-02-01T00:06:13;7.70;;;3.60;;
66741;SDS011;53654;54.152;19.432;2023-02-01T00:08:40;4.60;;;2.50;;
66741;SDS011;53654;54.152;19.432;2023-02-01T00:11:09;3.90;;;1.80;;
66741;SDS011;53654;54.152;19.432;2023-02-01T00:13:39;4.40;;;1.90;;
66741;SDS011;53654;54.152;19.432;2023-02-01T00:16:10;4.30;;;2.10;;
66741;SDS011;53654;54.152;19.432;2023-02-01T00:18:40;3.50;;;2.00;;
66741;SDS011;53654;54.152;19.432;2023-02-01T00:21:10;3.60;;;2.10;;
66741;SDS011;53654;54.152;19.432;2023-02-01T00:23:40;3.30;;;1.80;;
66741;SDS011;53654;54.152;19.432;2023-02-01T00:26:11;3.90;;;1.90;;
66741;SDS011;53654;54.152;19.432;2023-02-01T00:28:43;3.10;;;1.90;;
66741;SDS011;53654;54.152;19.432;2023-02-01T00:31:11;3.60;;;1.90;;
66741;SDS011;53654;54.152;19.432;2023-02-01T00:33:39;3.90;;;2.00;;
66741;SDS011;53654;54.152;19.432;2023-02-01T00:36:12;4.10;;;1.90;;
66741;SDS011;53654;54.152;19.432;2023-02-01T00:38:41;3.90;;;1.90;;
66741;SDS011;53654;54.152;19.432;2023-02-01T00:41:11;5.20;;;2.60;;
66741;SDS011;53654;54.152;19.432;2023-02-01T00:43:47;5.30;;;2.50;;
66741;SDS011;53654;54.152;19.432;2023-02-01T00:46:16;5.60;;;1.90;;
66741;SDS011;53654;54.152;19.432;2023-02-01T00:48:46;3.60;;;1.50;;
66741;SDS011;53654;54.152;19.432;2023-02-01T00:51:18;3.30;;;1.60;;
66741;SDS011;53654;54.152;19.432;2023-02-01T00:53:48;4.00;;;1.80;;
66741;SDS011;53654;54.152;19.432;2023-02-01T00:56:17;3.50;;;1.70;;
66741;SDS011;53654;54.152;19.432;2023-02-01T00:58:45;3.90;;;1.90;;
66741;SDS011;53654;54.152;19.432;2023-02-01T01:01:18;2.10;;;1.30;;
66741;SDS011;53654;54.152;19.432;2023-02-01T01:03:53;2.30;;;1.50;;
66741;SDS011;53654;54.152;19.432;2023-02-01T01:06:24;3.30;;;1.70;;
66741;SDS011;53654;54.152;19.432;2023-02-01T01:08:57;4.00;;;1.70;;
66741;SDS011;53654;54.152;19.432;2023-02-01T01:11:28;3.70;;;1.50;;
66741;SDS011;53654;54.152;19.432;2023-02-01T01:13:58;2.90;;;1.30;;
66741;SDS011;53654;54.152;19.432;2023-02-01T01:16:29;3.10;;;1.40;;
66741;SDS011;53654;54.152;19.432;2023-02-01T01:18:58;3.20;;;1.50;;
66741;SDS011;53654;54.152;19.432;2023-02-01T01:21:27;2.40;;;1.40;;
66741;SDS011;53654;54.152;19.432;2023-02-01T01:23:55;2.90;;;1.40;;
66741;SDS011;53654;54.152;19.432;2023-02-01T01:26:25;4.40;;;1.50;;
66741;SDS011;53654;54.152;19.432;2023-02-01T01:28:55;3.20;;;1.70;;
66741;SDS011;53654;54.152;19.432;2023-02-01T01:31:25;4.60;;;2.00;;
66741;SDS011;53654;54.152;19.432;2023-02-01T01:33:56;4.10;;;1.70;;
66741;SDS011;53654;54.152;19.432;2023-02-01T01:36:27;3.00;;;1.30;;
66741;SDS011;53654;54.152;19.432;2023-02-01T01:38:56;2.90;;;1.10;;
66741;SDS011;53654;54.152;19.432;2023-02-01T01:41:25;1.70;;;1.30;;
66741;SDS011;53654;54.152;19.432;2023-02-01T01:43:58;3.30;;;1.40;;
66741;SDS011;53654;54.152;19.432;2023-02-01T01:46:29;2.20;;;1.30;;
66741;SDS011;53654;54.152;19.432;2023-02-01T01:49:08;3.20;;;1.40;;
66741;SDS011;53654;54.152;19.432;2023-02-01T01:51:58;2.80;;;1.30;;
66741;SDS011;53654;54.152;19.432;2023-02-01T01:54:31;3.40;;;1.50;;
66741;SDS011;53654;54.152;19.432;2023-02-01T01:57:06;2.20;;;1.30;;
66741;SDS011;53654;54.152;19.432;2023-02-01T01:59:47;2.00;;;1.10;;
66741;SDS011;53654;54.152;19.432;2023-02-01T02:02:20;2.80;;;1.30;;
66741;SDS011;53654;54.152;19.432;2023-02-01T02:04:49;1.80;;;1.10;;
66741;SDS011;53654;54.152;19.432;2023-02-01T02:07:17;2.60;;;1.20;;
66741;SDS011;53654;54.152;19.432;2023-02-01T02:09:50;3.20;;;1.20;;
66741;SDS011;53654;54.152;19.432;2023-02-01T02:12:28;3.00;;;1.40;;
66741;SDS011;53654;54.152;19.432;2023-02-01T02:14:56;2.70;;;1.30;;
66741;SDS011;53654;54.152;19.432;2023-02-01T02:31:23;4.90;;;1.70;;
66741;SDS011;53654;54.152;19.432;2023-02-01T02:36:37;4.50;;;1.70;;
66741;SDS011;53654;54.152;19.432;2023-02-01T02:39:35;4.40;;;1.70;;
66741;SDS011;53654;54.152;19.432;2023-02-01T02:48:18;4.00;;;1.80;;
66741;SDS011;53654;54.152;19.432;2023-02-01T02:51:06;3.40;;;1.60;;
66741;SDS011;53654;54.152;19.432;2023-02-01T02:54:06;2.80;;;1.30;;
66741;SDS011;53654;54.152;19.432;2023-02-01T02:56:58;4.10;;;1.60;;
66741;SDS011;53654;54.152;19.432;2023-02-01T02:59:48;3.60;;;1.30;;
66741;SDS011;53654;54.152;19.432;2023-02-01T03:02:36;3.50;;;1.50;;
66741;SDS011;53654;54.152;19.432;2023-02-01T03:05:24;4.20;;;1.60;;
66741;SDS011;53654;54.152;19.432;2023-02-01T03:07:54;2.60;;;1.30;;
66741;SDS011;53654;54.152;19.432;2023-02-01T03:10:29;3.70;;;1.70;;
66741;SDS011;53654;54.152;19.432;2023-02-01T03:13:05;4.00;;;1.70;;
66741;SDS011;53654;54.152;19.432;2023-02-01T03:15:38;4.40;;;2.20;;
66741;SDS011;53654;54.152;19.432;2023-02-01T03:18:19;3.30;;;1.30;;
66741;SDS011;53654;54.152;19.432;2023-02-01T03:20:56;1.90;;;1.50;;
66741;SDS011;53654;54.152;19.432;2023-02-01T03:23:29;2.80;;;1.60;;
66741;SDS011;53654;54.152;19.432;2023-02-01T03:26:02;2.90;;;1.40;;
66741;SDS011;53654;54.152;19.432;2023-02-01T03:28:32;3.90;;;1.90;;
66741;SDS011;53654;54.152;19.432;2023-02-01T03:31:02;3.30;;;1.60;;
66741;SDS011;53654;54.152;19.432;2023-02-01T03:33:31;6.30;;;2.80;;
66741;SDS011;53654;54.152;19.432;2023-02-01T03:41:43;3.10;;;1.80;;
66741;SDS011;53654;54.152;19.432;2023-02-01T03:52:23;4.50;;;2.20;;
66741;SDS011;53654;54.152;19.432;2023-02-01T03:54:56;5.60;;;2.70;;
66741;SDS011;53654;54.152;19.432;2023-02-01T03:57:27;6.10;;;2.70;;
66741;SDS011;53654;54.152;19.432;2023-02-01T04:00:05;4.40;;;2.10;;
66741;SDS011;53654;54.152;19.432;2023-02-01T04:02:44;4.80;;;2.40;;
66741;SDS011;53654;54.152;19.432;2023-02-01T04:05:12;5.20;;;2.40;;
66741;SDS011;53654;54.152;19.432;2023-02-01T04:07:46;6.40;;;2.40;;
66741;SDS011;53654;54.152;19.432;2023-02-01T04:10:14;5.80;;;2.40;;
66741;SDS011;53654;54.152;19.432;2023-02-01T04:12:46;8.70;;;2.70;;
66741;SDS011;53654;54.152;19.432;2023-02-01T04:15:14;5.40;;;2.20;;
66741;SDS011;53654;54.152;19.432;2023-02-01T04:17:42;6.50;;;2.70;;
66741;SDS011;53654;54.152;19.432;2023-02-01T04:20:10;8.10;;;2.80;;
66741;SDS011;53654;54.152;19.432;2023-02-01T04:22:39;8.60;;;3.10;;
66741;SDS011;53654;54.152;19.432;2023-02-01T04:25:07;8.40;;;3.40;;
66741;SDS011;53654;54.152;19.432;2023-02-01T04:27:35;7.50;;;3.00;;
66741;SDS011;53654;54.152;19.432;2023-02-01T04:30:04;5.60;;;2.40;;
66741;SDS011;53654;54.152;19.432;2023-02-01T04:32:32;7.80;;;2.70;;
66741;SDS011;53654;54.152;19.432;2023-02-01T04:35:00;6.60;;;2.80;;
66741;SDS011;53654;54.152;19.432;2023-02-01T04:37:28;6.20;;;2.70;;
66741;SDS011;53654;54.152;19.432;2023-02-01T04:39:56;5.20;;;1.70;;
66741;SDS011;53654;54.152;19.432;2023-02-01T04:42:24;3.40;;;1.60;;
66741;SDS011;53654;54.152;19.432;2023-02-01T04:44:53;4.00;;;1.90;;
66741;SDS011;53654;54.152;19.432;2023-02-01T04:47:21;3.20;;;1.80;;
66741;SDS011;53654;54.152;19.432;2023-02-01T04:49:49;3.60;;;2.10;;
66741;SDS011;53654;54.152;19.432;2023-02-01T04:52:17;4.20;;;1.70;;
66741;SDS011;53654;54.152;19.432;2023-02-01T04:54:45;4.60;;;2.30;;
66741;SDS011;53654;54.152;19.432;2023-02-01T04:57:13;3.90;;;2.00;;
66741;SDS011;53654;54.152;19.432;2023-02-01T04:59:42;4.90;;;2.70;;
66741;SDS011;53654;54.152;19.432;2023-02-01T05:02:10;5.90;;;2.70;;
66741;SDS011;53654;54.152;19.432;2023-02-01T05:04:38;5.70;;;2.60;;
66741;SDS011;53654;54.152;19.432;2023-02-01T05:07:06;6.20;;;2.80;;
66741;SDS011;53654;54.152;19.432;2023-02-01T05:09:34;4.90;;;2.30;;
66741;SDS011;53654;54.152;19.432;2023-02-01T05:12:02;6.60;;;3.50;;
66741;SDS011;53654;54.152;19.432;2023-02-01T05:14:50;5.30;;;2.90;;
66741;SDS011;53654;54.152;19.432;2023-02-01T05:17:18;5.30;;;3.10;;
66741;SDS011;53654;54.152;19.432;2023-02-01T05:19:46;5.10;;;2.40;;
66741;SDS011;53654;54.152;19.432;2023-02-01T05:22:14;4.10;;;2.00;;
66741;SDS011;53654;54.152;19.432;2023-02-01T05:24:42;3.90;;;1.70;;
66741;SDS011;53654;54.152;19.432;2023-02-01T05:27:10;4.60;;;2.00;;
66741;SDS011;53654;54.152;19.432;2023-02-01T05:29:38;4.50;;;2.00;;
66741;SDS011;53654;54.152;19.432;2023-02-01T05:32:06;4.70;;;2.10;;
66741;SDS011;53654;54.152;19.432;2023-02-01T05:34:49;4.10;;;1.90;;
66741;SDS011;53654;54.152;19.432;2023-02-01T05:37:17;5.30;;;2.00;;
66741;SDS011;53654;54.152;19.432;2023-02-01T05:39:45;5.40;;;3.10;;
66741;SDS011;53654;54.152;19.432;2023-02-01T05:42:13;4.90;;;1.90;;
66741;SDS011;53654;54.152;19.432;2023-02-01T05:44:42;4.20;;;2.20;;
66741;SDS011;53654;54.152;19.432;2023-02-01T05:47:10;4.80;;;2.20;;
66741;SDS011;53654;54.152;19.432;2023-02-01T05:49:38;5.70;;;2.10;;
66741;SDS011;53654;54.152;19.432;2023-02-01T05:52:06;5.20;;;2.20;;
66741;SDS011;53654;54.152;19.432;2023-02-01T05:54:34;4.60;;;2.20;;
66741;SDS011;53654;54.152;19.432;2023-02-01T05:57:02;4.80;;;2.70;;
66741;SDS011;53654;54.152;19.432;2023-02-01T05:59:31;5.60;;;2.40;;
66741;SDS011;53654;54.152;19.432;2023-02-01T06:01:59;6.10;;;2.30;;
66741;SDS011;53654;54.152;19.432;2023-02-01T06:04:27;5.40;;;2.10;;
66741;SDS011;53654;54.152;19.432;2023-02-01T06:06:55;5.80;;;2.80;;
66741;SDS011;53654;54.152;19.432;2023-02-01T06:09:23;6.70;;;2.80;;
66741;SDS011;53654;54.152;19.432;2023-02-01T06:11:51;7.00;;;2.80;;
66741;SDS011;53654;54.152;19.432;2023-02-01T06:14:19;5.00;;;3.00;;
66741;SDS011;53654;54.152;19.432;2023-02-01T06:16:48;6.30;;;3.30;;
66741;SDS011;53654;54.152;19.432;2023-02-01T06:19:16;6.80;;;3.30;;
66741;SDS011;53654;54.152;19.432;2023-02-01T06:21:44;7.90;;;3.40;;
66741;SDS011;53654;54.152;19.432;2023-02-01T06:24:12;6.60;;;3.00;;
66741;SDS011;53654;54.152;19.432;2023-02-01T06:26:40;5.50;;;2.80;;
66741;SDS011;53654;54.152;19.432;2023-02-01T06:29:09;4.40;;;2.80;;
66741;SDS011;53654;54.152;19.432;2023-02-01T06:31:38;5.30;;;2.70;;
66741;SDS011;53654;54.152;19.432;2023-02-01T06:34:07;5.90;;;3.20;;
66741;SDS011;53654;54.152;19.432;2023-02-01T06:36:36;4.40;;;2.60;;
66741;SDS011;53654;54.152;19.432;2023-02-01T06:39:04;3.90;;;2.20;;
66741;SDS011;53654;54.152;19.432;2023-02-01T06:41:32;4.50;;;2.40;;
66741;SDS011;53654;54.152;19.432;2023-02-01T06:44:02;3.20;;;2.30;;
66741;SDS011;53654;54.152;19.432;2023-02-01T06:46:30;3.50;;;2.20;;
66741;SDS011;53654;54.152;19.432;2023-02-01T06:48:58;2.90;;;1.80;;
66741;SDS011;53654;54.152;19.432;2023-02-01T06:51:27;4.00;;;1.80;;
66741;SDS011;53654;54.152;19.432;2023-02-01T06:53:57;2.20;;;1.70;;
66741;SDS011;53654;54.152;19.432;2023-02-01T06:56:26;3.20;;;1.80;;
66741;SDS011;53654;54.152;19.432;2023-02-01T06:58:54;2.50;;;1.70;;
66741;SDS011;53654;54.152;19.432;2023-02-01T07:01:22;3.30;;;2.00;;
66741;SDS011;53654;54.152;19.432;2023-02-01T07:03:50;3.70;;;1.90;;
66741;SDS011;53654;54.152;19.432;2023-02-01T07:06:19;3.80;;;2.00;;
66741;SDS011;53654;54.152;19.432;2023-02-01T07:08:47;3.70;;;2.10;;
66741;SDS011;53654;54.152;19.432;2023-02-01T07:11:16;3.90;;;2.40;;
66741;SDS011;53654;54.152;19.432;2023-02-01T07:13:45;4.00;;;2.50;;
66741;SDS011;53654;54.152;19.432;2023-02-01T07:16:17;3.70;;;2.20;;
66741;SDS011;53654;54.152;19.432;2023-02-01T07:18:49;3.70;;;2.30;;
66741;SDS011;53654;54.152;19.432;2023-02-01T07:21:19;3.50;;;2.00;;
66741;SDS011;53654;54.152;19.432;2023-02-01T07:23:47;2.50;;;1.90;;
66741;SDS011;53654;54.152;19.432;2023-02-01T07:26:15;4.00;;;2.30;;
66741;SDS011;53654;54.152;19.432;2023-02-01T07:28:44;3.60;;;2.50;;
66741;SDS011;53654;54.152;19.432;2023-02-01T07:31:13;4.30;;;2.30;;
66741;SDS011;53654;54.152;19.432;2023-02-01T07:33:43;4.00;;;2.10;;
66741;SDS011;53654;54.152;19.432;2023-02-01T07:36:12;4.70;;;2.10;;
66741;SDS011;53654;54.152;19.432;2023-02-01T07:38:42;5.10;;;2.40;;
66741;SDS011;53654;54.152;19.432;2023-02-01T07:41:10;3.60;;;2.40;;
66741;SDS011;53654;54.152;19.432;2023-02-01T07:43:39;3.70;;;2.10;;
66741;SDS011;53654;54.152;19.432;2023-02-01T07:46:07;3.80;;;2.00;;
66741;SDS011;53654;54.152;19.432;2023-02-01T07:48:37;6.60;;;2.90;;
66741;SDS011;53654;54.152;19.432;2023-02-01T07:51:10;5.20;;;2.50;;
66741;SDS011;53654;54.152;19.432;2023-02-01T07:53:40;4.70;;;2.60;;
66741;SDS011;53654;54.152;19.432;2023-02-01T07:56:12;5.60;;;2.30;;
66741;SDS011;53654;54.152;19.432;2023-02-01T07:58:42;4.30;;;2.90;;
66741;SDS011;53654;54.152;19.432;2023-02-01T08:01:14;5.90;;;2.90;;
66741;SDS011;53654;54.152;19.432;2023-02-01T08:06:24;4.10;;;2.60;;
66741;SDS011;53654;54.152;19.432;2023-02-01T08:08:53;4.70;;;2.60;;
66741;SDS011;53654;54.152;19.432;2023-02-01T08:11:22;5.40;;;3.10;;
66741;SDS011;53654;54.152;19.432;2023-02-01T08:13:52;5.10;;;3.10;;
66741;SDS011;53654;54.152;19.432;2023-02-01T08:16:22;5.60;;;2.80;;
66741;SDS011;53654;54.152;19.432;2023-02-01T08:18:51;4.90;;;3.10;;
66741;SDS011;53654;54.152;19.432;2023-02-01T08:21:23;5.80;;;3.60;;
66741;SDS011;53654;54.152;19.432;2023-02-01T08:23:53;5.20;;;3.20;;
66741;SDS011;53654;54.152;19.432;2023-02-01T08:26:22;6.60;;;3.60;;
66741;SDS011;53654;54.152;19.432;2023-02-01T08:28:56;7.50;;;4.30;;
66741;SDS011;53654;54.152;19.432;2023-02-01T08:31:26;6.40;;;3.40;;
66741;SDS011;53654;54.152;19.432;2023-02-01T08:33:57;6.50;;;3.50;;
66741;SDS011;53654;54.152;19.432;2023-02-01T08:36:27;5.70;;;3.30;;
66741;SDS011;53654;54.152;19.432;2023-02-01T08:38:57;7.40;;;3.30;;
66741;SDS011;53654;54.152;19.432;2023-02-01T08:41:26;7.40;;;3.40;;
66741;SDS011;53654;54.152;19.432;2023-02-01T08:43:57;7.00;;;3.40;;
66741;SDS011;53654;54.152;19.432;2023-02-01T08:46:25;6.70;;;3.30;;
66741;SDS011;53654;54.152;19.432;2023-02-01T08:48:54;6.80;;;3.20;;
66741;SDS011;53654;54.152;19.432;2023-02-01T08:51:23;7.30;;;4.00;;
66741;SDS011;53654;54.152;19.432;2023-02-01T08:53:52;8.70;;;4.40;;
66741;SDS011;53654;54.152;19.432;2023-02-01T08:56:20;9.60;;;5.00;;
66741;SDS011;53654;54.152;19.432;2023-02-01T08:58:48;10.50;;;6.40;;
66741;SDS011;53654;54.152;19.432;2023-02-01T09:01:17;13.00;;;6.20;;
66741;SDS011;53654;54.152;19.432;2023-02-01T09:03:45;12.50;;;7.00;;
66741;SDS011;53654;54.152;19.432;2023-02-01T09:06:14;12.20;;;5.30;;
66741;SDS011;53654;54.152;19.432;2023-02-01T09:08:43;12.30;;;5.40;;
66741;SDS011;53654;54.152;19.432;2023-02-01T09:11:16;11.70;;;5.10;;
66741;SDS011;53654;54.152;19.432;2023-02-01T09:13:47;14.30;;;8.20;;
66741;SDS011;53654;54.152;19.432;2023-02-01T09:16:15;14.00;;;8.70;;
66741;SDS011;53654;54.152;19.432;2023-02-01T09:18:44;11.30;;;6.60;;
66741;SDS011;53654;54.152;19.432;2023-02-01T09:21:32;15.10;;;7.00;;
66741;SDS011;53654;54.152;19.432;2023-02-01T09:24:00;11.70;;;6.10;;
66741;SDS011;53654;54.152;19.432;2023-02-01T09:26:29;12.80;;;6.30;;
66741;SDS011;53654;54.152;19.432;2023-02-01T09:28:59;11.70;;;5.80;;
66741;SDS011;53654;54.152;19.432;2023-02-01T09:31:29;12.00;;;5.30;;
66741;SDS011;53654;54.152;19.432;2023-02-01T09:33:58;13.00;;;5.20;;
66741;SDS011;53654;54.152;19.432;2023-02-01T09:36:26;13.30;;;5.80;;
66741;SDS011;53654;54.152;19.432;2023-02-01T09:38:58;13.40;;;5.40;;
66741;SDS011;53654;54.152;19.432;2023-02-01T09:41:47;11.10;;;5.00;;
66741;SDS011;53654;54.152;19.432;2023-02-01T09:47:12;13.20;;;5.50;;
66741;SDS011;53654;54.152;19.432;2023-02-01T09:49:45;12.10;;;5.00;;
66741;SDS011;53654;54.152;19.432;2023-02-01T09:52:25;11.90;;;4.80;;
66741;SDS011;53654;54.152;19.432;2023-02-01T09:55:00;11.40;;;5.30;;
66741;SDS011;53654;54.152;19.432;2023-02-01T10:02:54;12.70;;;5.30;;
66741;SDS011;53654;54.152;19.432;2023-02-01T10:05:39;11.80;;;5.90;;
66741;SDS011;53654;54.152;19.432;2023-02-01T10:11:01;11.70;;;5.40;;
66741;SDS011;53654;54.152;19.432;2023-02-01T10:13:46;10.40;;;5.20;;
66741;SDS011;53654;54.152;19.432;2023-02-01T10:19:05;10.20;;;4.70;;
66741;SDS011;53654;54.152;19.432;2023-02-01T10:24:43;12.80;;;6.00;;
66741;SDS011;53654;54.152;19.432;2023-02-01T10:27:22;12.50;;;5.70;;
66741;SDS011;53654;54.152;19.432;2023-02-01T10:30:01;16.30;;;6.70;;
66741;SDS011;53654;54.152;19.432;2023-02-01T10:32:38;13.20;;;6.70;;
66741;SDS011;53654;54.152;19.432;2023-02-01T10:37:43;13.70;;;6.90;;
66741;SDS011;53654;54.152;19.432;2023-02-01T10:40:25;17.10;;;8.00;;
66741;SDS011;53654;54.152;19.432;2023-02-01T10:42:56;14.50;;;8.40;;
66741;SDS011;53654;54.152;19.432;2023-02-01T10:45:30;17.10;;;8.90;;
66741;SDS011;53654;54.152;19.432;2023-02-01T10:48:02;17.00;;;10.20;;
66741;SDS011;53654;54.152;19.432;2023-02-01T10:50:49;18.10;;;9.10;;
66741;SDS011;53654;54.152;19.432;2023-02-01T10:56:08;16.90;;;8.00;;
66741;SDS011;53654;54.152;19.432;2023-02-01T10:58:45;17.80;;;8.10;;
66741;SDS011;53654;54.152;19.432;2023-02-01T11:01:16;16.10;;;7.30;;
66741;SDS011;53654;54.152;19.432;2023-02-01T11:03:54;14.00;;;7.10;;
66741;SDS011;53654;54.152;19.432;2023-02-01T11:06:29;15.80;;;8.10;;
66741;SDS011;53654;54.152;19.432;2023-02-01T11:16:49;10.10;;;4.50;;
66741;SDS011;53654;54.152;19.432;2023-02-01T11:19:48;8.50;;;4.10;;
66741;SDS011;53654;54.152;19.432;2023-02-01T11:22:26;9.90;;;4.90;;
66741;SDS011;53654;54.152;19.432;2023-02-01T11:24:57;9.30;;;4.00;;
66741;SDS011;53654;54.152;19.432;2023-02-01T11:27:29;7.10;;;3.70;;
66741;SDS011;53654;54.152;19.432;2023-02-01T11:30:05;6.90;;;3.20;;
66741;SDS011;53654;54.152;19.432;2023-02-01T11:32:33;7.70;;;4.00;;
66741;SDS011;53654;54.152;19.432;2023-02-01T11:35:03;7.50;;;4.20;;
66741;SDS011;53654;54.152;19.432;2023-02-01T11:37:34;6.60;;;4.10;;
66741;SDS011;53654;54.152;19.432;2023-02-01T11:43:08;8.70;;;5.10;;
66741;SDS011;53654;54.152;19.432;2023-02-01T11:45:57;8.50;;;5.50;;
66741;SDS011;53654;54.152;19.432;2023-02-01T11:48:27;9.90;;;6.30;;
66741;SDS011;53654;54.152;19.432;2023-02-01T12:02:44;12.00;;;9.30;;
66741;SDS011;53654;54.152;19.432;2023-02-01T12:11:24;6.60;;;4.20;;
66741;SDS011;53654;54.152;19.432;2023-02-01T12:14:23;8.20;;;4.70;;
66741;SDS011;53654;54.152;19.432;2023-02-01T12:26:00;5.00;;;2.80;;
66741;SDS011;53654;54.152;19.432;2023-02-01T12:31:40;5.50;;;5.00;;
66741;SDS011;53654;54.152;19.432;2023-02-01T12:34:21;7.80;;;7.00;;
66741;SDS011;53654;54.152;19.432;2023-02-01T12:45:42;8.80;;;7.40;;
66741;SDS011;53654;54.152;19.432;2023-02-01T12:48:31;9.30;;;7.30;;
66741;SDS011;53654;54.152;19.432;2023-02-01T12:51:07;8.10;;;6.10;;
66741;SDS011;53654;54.152;19.432;2023-02-01T12:53:46;7.70;;;6.30;;
66741;SDS011;53654;54.152;19.432;2023-02-01T12:58:59;10.30;;;7.60;;
66741;SDS011;53654;54.152;19.432;2023-02-01T13:01:35;8.00;;;5.80;;
66741;SDS011;53654;54.152;19.432;2023-02-01T13:07:12;8.70;;;4.90;;
66741;SDS011;53654;54.152;19.432;2023-02-01T13:09:54;8.30;;;4.50;;
66741;SDS011;53654;54.152;19.432;2023-02-01T13:12:38;6.90;;;3.30;;
66741;SDS011;53654;54.152;19.432;2023-02-01T13:17:44;8.10;;;4.70;;
66741;SDS011;53654;54.152;19.432;2023-02-01T13:25:51;6.50;;;3.80;;
66741;SDS011;53654;54.152;19.432;2023-02-01T13:28:28;5.90;;;3.60;;
66741;SDS011;53654;54.152;19.432;2023-02-01T13:36:56;13.50;;;6.80;;
66741;SDS011;53654;54.152;19.432;2023-02-01T13:42:18;6.60;;;3.60;;
66741;SDS011;53654;54.152;19.432;2023-02-01T13:44:51;5.80;;;3.20;;
66741;SDS011;53654;54.152;19.432;2023-02-01T13:50:02;5.90;;;3.50;;
66741;SDS011;53654;54.152;19.432;2023-02-01T13:52:41;6.30;;;3.70;;
66741;SDS011;53654;54.152;19.432;2023-02-01T13:55:22;7.20;;;4.50;;
66741;SDS011;53654;54.152;19.432;2023-02-01T13:58:04;6.70;;;4.20;;
66741;SDS011;53654;54.152;19.432;2023-02-01T14:00:45;5.50;;;3.80;;
66741;SDS011;53654;54.152;19.432;2023-02-01T14:03:17;6.70;;;4.40;;
66741;SDS011;53654;54.152;19.432;2023-02-01T14:08:22;8.20;;;5.50;;
66741;SDS011;53654;54.152;19.432;2023-02-01T14:11:05;8.90;;;6.10;;
66741;SDS011;53654;54.152;19.432;2023-02-01T14:13:37;6.80;;;4.80;;
66741;SDS011;53654;54.152;19.432;2023-02-01T14:16:14;8.70;;;5.00;;
66741;SDS011;53654;54.152;19.432;2023-02-01T14:29:25;13.30;;;7.50;;
66741;SDS011;53654;54.152;19.432;2023-02-01T14:50:34;18.70;;;11.80;;
66741;SDS011;53654;54.152;19.432;2023-02-01T14:55:41;13.20;;;8.70;;
66741;SDS011;53654;54.152;19.432;2023-02-01T14:58:26;13.30;;;8.60;;
66741;SDS011;53654;54.152;19.432;2023-02-01T15:09:29;11.30;;;5.40;;
66741;SDS011;53654;54.152;19.432;2023-02-01T15:12:22;11.10;;;6.00;;
66741;SDS011;53654;54.152;19.432;2023-02-01T15:15:12;9.90;;;5.50;;
66741;SDS011;53654;54.152;19.432;2023-02-01T15:17:56;8.30;;;4.70;;
66741;SDS011;53654;54.152;19.432;2023-02-01T15:20:29;8.00;;;4.50;;
66741;SDS011;53654;54.152;19.432;2023-02-01T15:23:04;7.30;;;4.40;;
66741;SDS011;53654;54.152;19.432;2023-02-01T15:25:45;7.00;;;3.80;;
66741;SDS011;53654;54.152;19.432;2023-02-01T15:28:14;9.00;;;4.50;;
66741;SDS011;53654;54.152;19.432;2023-02-01T15:30:58;6.90;;;4.40;;
66741;SDS011;53654;54.152;19.432;2023-02-01T15:33:57;9.20;;;5.40;;
66741;SDS011;53654;54.152;19.432;2023-02-01T15:36:30;9.10;;;5.50;;
66741;SDS011;53654;54.152;19.432;2023-02-01T15:42:11;9.80;;;4.40;;
66741;SDS011;53654;54.152;19.432;2023-02-01T15:44:47;9.20;;;5.90;;
66741;SDS011;53654;54.152;19.432;2023-02-01T15:47:26;10.50;;;5.90;;
66741;SDS011;53654;54.152;19.432;2023-02-01T15:50:01;8.90;;;5.50;;
66741;SDS011;53654;54.152;19.432;2023-02-01T15:52:37;8.10;;;5.40;;
66741;SDS011;53654;54.152;19.432;2023-02-01T15:55:17;8.10;;;5.10;;
66741;SDS011;53654;54.152;19.432;2023-02-01T15:57:50;7.20;;;4.00;;
66741;SDS011;53654;54.152;19.432;2023-02-01T16:00:24;6.80;;;3.70;;
66741;SDS011;53654;54.152;19.432;2023-02-01T16:02:57;12.30;;;5.10;;
66741;SDS011;53654;54.152;19.432;2023-02-01T16:05:35;9.70;;;5.80;;
66741;SDS011;53654;54.152;19.432;2023-02-01T16:10:42;10.80;;;6.20;;
66741;SDS011;53654;54.152;19.432;2023-02-01T16:13:27;13.80;;;7.90;;
66741;SDS011;53654;54.152;19.432;2023-02-01T16:15:55;7.90;;;4.80;;
66741;SDS011;53654;54.152;19.432;2023-02-01T16:18:23;7.60;;;4.80;;
66741;SDS011;53654;54.152;19.432;2023-02-01T16:20:51;7.00;;;5.00;;
66741;SDS011;53654;54.152;19.432;2023-02-01T16:23:19;7.60;;;5.70;;
66741;SDS011;53654;54.152;19.432;2023-02-01T16:25:48;8.70;;;6.10;;
66741;SDS011;53654;54.152;19.432;2023-02-01T16:28:16;9.20;;;6.30;;
66741;SDS011;53654;54.152;19.432;2023-02-01T16:30:44;7.90;;;6.80;;
66741;SDS011;53654;54.152;19.432;2023-02-01T16:33:14;10.10;;;7.90;;
66741;SDS011;53654;54.152;19.432;2023-02-01T16:35:47;9.90;;;8.10;;
66741;SDS011;53654;54.152;19.432;2023-02-01T16:38:17;10.20;;;7.60;;
66741;SDS011;53654;54.152;19.432;2023-02-01T16:40:49;9.30;;;7.50;;
66741;SDS011;53654;54.152;19.432;2023-02-01T16:43:18;10.60;;;6.50;;
66741;SDS011;53654;54.152;19.432;2023-02-01T16:45:49;7.40;;;5.00;;
66741;SDS011;53654;54.152;19.432;2023-02-01T16:50:58;13.90;;;9.60;;
66741;SDS011;53654;54.152;19.432;2023-02-01T16:53:29;14.60;;;9.50;;
66741;SDS011;53654;54.152;19.432;2023-02-01T16:59:01;14.50;;;10.30;;
66741;SDS011;53654;54.152;19.432;2023-02-01T17:01:29;19.20;;;12.60;;
66741;SDS011;53654;54.152;19.432;2023-02-01T17:03:58;15.90;;;10.70;;
66741;SDS011;53654;54.152;19.432;2023-02-01T17:06:26;16.20;;;11.00;;
66741;SDS011;53654;54.152;19.432;2023-02-01T17:08:57;13.20;;;9.20;;
66741;SDS011;53654;54.152;19.432;2023-02-01T17:11:27;16.80;;;11.80;;
66741;SDS011;53654;54.152;19.432;2023-02-01T17:14:01;15.60;;;11.00;;
66741;SDS011;53654;54.152;19.432;2023-02-01T17:16:46;14.40;;;9.80;;
66741;SDS011;53654;54.152;19.432;2023-02-01T17:19:18;19.10;;;13.10;;
66741;SDS011;53654;54.152;19.432;2023-02-01T17:21:52;17.50;;;11.30;;
66741;SDS011;53654;54.152;19.432;2023-02-01T17:24:28;15.30;;;10.40;;
66741;SDS011;53654;54.152;19.432;2023-02-01T17:27:14;13.50;;;8.20;;
66741;SDS011;53654;54.152;19.432;2023-02-01T17:29:43;12.50;;;8.00;;
66741;SDS011;53654;54.152;19.432;2023-02-01T17:32:23;14.20;;;8.90;;
66741;SDS011;53654;54.152;19.432;2023-02-01T17:34:52;13.20;;;9.90;;
66741;SDS011;53654;54.152;19.432;2023-02-01T17:37:25;12.90;;;9.30;;
66741;SDS011;53654;54.152;19.432;2023-02-01T17:39:58;12.30;;;8.90;;
66741;SDS011;53654;54.152;19.432;2023-02-01T17:42:27;12.00;;;8.00;;
66741;SDS011;53654;54.152;19.432;2023-02-01T17:44:59;15.90;;;10.00;;
66741;SDS011;53654;54.152;19.432;2023-02-01T17:47:29;11.90;;;8.40;;
66741;SDS011;53654;54.152;19.432;2023-02-01T17:49:57;12.80;;;8.20;;
66741;SDS011;53654;54.152;19.432;2023-02-01T17:52:25;13.90;;;8.60;;
66741;SDS011;53654;54.152;19.432;2023-02-01T17:54:53;14.00;;;8.60;;
66741;SDS011;53654;54.152;19.432;2023-02-01T17:57:21;12.80;;;9.10;;
66741;SDS011;53654;54.152;19.432;2023-02-01T17:59:50;12.70;;;7.70;;
66741;SDS011;53654;54.152;19.432;2023-02-01T18:02:19;12.20;;;8.30;;
66741;SDS011;53654;54.152;19.432;2023-02-01T18:04:49;16.50;;;9.90;;
66741;SDS011;53654;54.152;19.432;2023-02-01T18:07:18;14.00;;;9.80;;
66741;SDS011;53654;54.152;19.432;2023-02-01T18:09:46;13.50;;;10.10;;
66741;SDS011;53654;54.152;19.432;2023-02-01T18:12:17;14.70;;;9.80;;